SEQM 040700Z 30005KT 9999 BKN005 13/12 Q1026 NOSIG RMK A3030
From batch tds/metars/production/2023/2/4/h07_m19_metars.cache.csv.gz
Observed at (about 2 hours ago)
Identifier SEQM
SEQM 040300Z VRB02KT 9999 OVC003 13/12 Q1027 NOSIG RMK A3035
From batch tds/metars/production/2023/2/4/h03_m27_metars.cache.csv.gz
Observed at (about 6 hours ago)
Identifier SEQM
SEQM 031900Z 36012KT 9999 SCT033 23/10 Q1022 NOSIG RMK A3018
From batch tds/metars/production/2023/2/3/h19_m22_metars.cache.csv.gz
Observed at (about 14 hours ago)
Identifier SEQM
SEQM 031800Z 35012KT 9999 SCT033 23/07 Q1023 NOSIG RMK A3021
From batch tds/metars/production/2023/2/3/h18_m26_metars.cache.csv.gz
Observed at (about 15 hours ago)
Identifier SEQM
SEQM 031700Z 35005KT 9999 SCT033 22/06 Q1024 NOSIG RMK A3024
From batch tds/metars/production/2023/2/3/h17_m20_metars.cache.csv.gz
Observed at (about 16 hours ago)
Identifier SEQM
SEQM 031600Z 02005KT 9999 FEW033 20/07 Q1025 NOSIG RMK A3028
From batch tds/metars/production/2023/2/3/h16_m26_metars.cache.csv.gz
Observed at (about 17 hours ago)
Identifier SEQM
SEQM 031500Z 36005KT 9999 FEW033 18/08 Q1026 NOSIG RMK A3031
From batch tds/metars/production/2023/2/3/h15_m26_metars.cache.csv.gz
Observed at (about 18 hours ago)
Identifier SEQM
SEQM 031400Z 34003KT 9999 FEW030 17/10 Q1026 NOSIG RMK A3032
From batch tds/metars/production/2023/2/3/h14_m23_metars.cache.csv.gz
Observed at (about 19 hours ago)
Identifier SEQM
talk